Time;durP1;ratioP1;P1;durP2;ratioP2;P2;SDS_P1;SDS_P2;PMS_P1;PMS_P2;Temp;Humidity;BMP_temperature;BMP_pressure;BME280_temperature;BME280_humidity;BME280_pressure;Samples;Min_cycle;Max_cycle;Signal;HPM_P1;HPM_P2
2022/07/27 00:00:45;;;;;;;;;2.00;2.00;;;;;-146.44;100.00;58906.56;5076305;27;45452;-59
2022/07/27 00:03:10;;;;;;;;;3.00;3.00;;;;;-146.44;100.00;58906.56;5077897;27;45444;-59
2022/07/27 00:05:38;;;;;;;;;3.75;3.00;;;;;-146.44;100.00;58906.56;5077209;27;45972;-60
2022/07/27 00:08:05;;;;;;;;;2.00;2.00;;;;;-146.44;100.00;58906.56;5077899;28;45460;-60
2022/07/27 00:10:30;;;;;;;;;4.75;3.00;;;;;-146.44;100.00;58906.56;5077846;27;45374;-60
2022/07/27 00:12:56;;;;;;;;;3.50;3.50;;;;;-146.44;100.00;58906.56;5077110;27;45362;-59
2022/07/27 00:15:21;;;;;;;;;3.00;3.00;;;;;-146.44;100.00;58906.56;5077549;27;46150;-59
2022/07/27 00:17:46;;;;;;;;;1.00;1.00;;;;;-146.44;100.00;58906.56;5077779;27;45490;-59
2022/07/27 00:20:12;;;;;;;;;3.00;2.00;;;;;-146.44;100.00;58906.56;5076181;28;45489;-59
2022/07/27 00:22:38;;;;;;;;;3.00;3.00;;;;;-146.44;100.00;58906.56;5057489;28;45500;-59
2022/07/27 00:25:03;;;;;;;;;1.00;1.00;;;;;-146.44;100.00;58906.56;5057437;28;45418;-59
2022/07/27 00:27:29;;;;;;;;;3.50;3.50;;;;;-146.44;100.00;58906.56;5072659;28;45476;-60
2022/07/27 00:29:54;;;;;;;;;3.00;3.00;;;;;-146.44;100.00;58906.56;5077810;27;45873;-60
2022/07/27 00:32:19;;;;;;;;;4.00;4.00;;;;;-146.44;100.00;58906.56;5077772;27;45661;-59
2022/07/27 00:34:46;;;;;;;;;4.00;4.00;;;;;-146.44;100.00;58906.56;5077003;27;45438;-59
2022/07/27 00:37:11;;;;;;;;;2.25;2.25;;;;;-146.44;100.00;58906.56;5077683;27;45461;-60
2022/07/27 00:39:37;;;;;;;;;5.00;5.00;;;;;-146.44;100.00;58906.56;5077588;27;45486;-60
2022/07/27 00:42:02;;;;;;;;;3.00;3.00;;;;;-146.44;100.00;58906.56;5076939;27;45408;-60
2022/07/27 00:44:29;;;;;;;;;4.75;3.00;;;;;-146.44;100.00;58906.56;5077265;27;45968;-60
2022/07/27 00:46:55;;;;;;;;;3.00;3.00;;;;;-146.44;100.00;58906.56;5073740;28;45437;-60
2022/07/27 00:49:22;;;;;;;;;5.00;3.00;;;;;-146.44;100.00;58906.56;5054377;28;45482;-60
2022/07/27 00:51:49;;;;;;;;;4.00;4.00;;;;;-146.44;100.00;58906.56;5057505;28;45769;-60
2022/07/27 00:54:15;;;;;;;;;5.33;5.33;;;;;-146.44;100.00;58906.56;5059415;28;46231;-60
2022/07/27 00:56:41;;;;;;;;;5.00;4.00;;;;;-146.44;100.00;58906.56;5059160;28;45547;-60
2022/07/27 00:59:09;;;;;;;;;4.50;4.50;;;;;-146.44;100.00;58906.56;5060395;28;45698;-60
2022/07/27 01:01:35;;;;;;;;;3.33;3.33;;;;;-146.44;100.00;58906.56;5056904;28;45421;-60
2022/07/27 01:04:01;;;;;;;;;4.00;4.00;;;;;-146.44;100.00;58906.56;5056241;28;45614;-60
2022/07/27 01:06:27;;;;;;;;;6.00;5.33;;;;;-146.44;100.00;58906.56;5060891;28;45526;-60
2022/07/27 01:09:55;;;;;;;;;3.00;3.00;;;;;-146.44;100.00;58906.56;5056761;28;45441;-60
2022/07/27 01:11:38;;;;;;;;;3.00;3.00;;;;;-146.44;100.00;58906.56;5070050;27;45504;-60
2022/07/27 01:14:04;;;;;;;;;5.00;4.00;;;;;-146.44;100.00;58906.56;5058688;28;45941;-60
2022/07/27 01:16:30;;;;;;;;;6.00;4.00;;;;;-146.44;100.00;58906.56;5061310;28;45448;-60
2022/07/27 01:18:55;;;;;;;;;6.67;5.67;;;;;-146.44;100.00;58906.56;5063889;28;45455;-60
2022/07/27 01:21:20;;;;;;;;;6.33;4.33;;;;;-146.44;100.00;58906.56;5069554;28;45594;-60
2022/07/27 01:23:46;;;;;;;;;2.25;2.25;;;;;-146.44;100.00;58906.56;5069709;28;45453;-60
2022/07/27 01:26:11;;;;;;;;;3.00;3.00;;;;;-146.44;100.00;58906.56;5063797;27;45542;-59
2022/07/27 01:28:36;;;;;;;;;4.67;4.00;;;;;-146.44;100.00;58906.56;5064458;28;45395;-60
2022/07/27 01:31:02;;;;;;;;;3.00;3.00;;;;;-146.44;100.00;58906.56;5057045;28;45721;-60
2022/07/27 01:33:27;;;;;;;;;5.00;4.00;;;;;-146.44;100.00;58906.56;5073400;28;45928;-60
2022/07/27 01:35:55;;;;;;;;;4.33;4.33;;;;;-146.44;100.00;58906.56;5071661;28;45363;-60
2022/07/27 01:38:21;;;;;;;;;3.00;3.00;;;;;-146.44;100.00;58906.56;5062454;27;45407;-60
2022/07/27 01:40:48;;;;;;;;;3.00;3.00;;;;;-146.44;100.00;58906.56;5056110;28;45421;-59
2022/07/27 01:43:13;;;;;;;;;4.00;4.00;;;;;-146.44;100.00;58906.56;5064083;28;45575;-59
2022/07/27 01:45:39;;;;;;;;;4.00;4.00;;;;;-146.44;100.00;58906.56;5064156;27;45452;-61
2022/07/27 01:48:04;;;;;;;;;5.00;5.00;;;;;-146.44;100.00;58906.56;5060785;27;45456;-60
2022/07/27 01:50:30;;;;;;;;;3.25;3.25;;;;;-146.44;100.00;58906.56;5074859;28;45479;-60
2022/07/27 01:52:55;;;;;;;;;3.00;3.00;;;;;-146.44;100.00;58906.56;5062544;28;46019;-60
2022/07/27 01:55:21;;;;;;;;;5.00;5.00;;;;;-146.44;100.00;58906.56;5060173;27;45570;-60
2022/07/27 01:57:46;;;;;;;;;4.00;4.00;;;;;-146.44;100.00;58906.56;5065923;27;45524;-60
2022/07/27 02:00:12;;;;;;;;;5.75;4.00;;;;;-146.44;100.00;58906.56;5075302;27;45504;-60
2022/07/27 02:02:38;;;;;;;;;5.00;3.00;;;;;-146.44;100.00;58906.56;5080861;27;45558;-60
2022/07/27 02:05:04;;;;;;;;;5.00;2.50;;;;;-146.44;100.00;58906.56;5064466;28;45545;-60
2022/07/27 02:07:29;;;;;;;;;5.00;4.00;;;;;-146.44;100.00;58906.56;5059105;27;45597;-60
2022/07/27 02:09:55;;;;;;;;;5.25;3.00;;;;;-146.44;100.00;58906.56;5072719;27;45747;-60
2022/07/27 02:12:35;;;;;;;;;3.00;3.00;;;;;-146.44;100.00;58906.56;5071915;27;45530;-59
2022/07/27 02:15:13;;;;;;;;;7.00;4.00;;;;;-146.44;100.00;58906.56;5071982;28;45392;-60
2022/07/27 02:17:39;;;;;;;;;4.00;4.00;;;;;-146.44;100.00;58906.56;5060918;28;45442;-60
2022/07/27 02:20:07;;;;;;;;;4.00;4.00;;;;;-146.44;100.00;58906.56;5076153;27;45441;-60
2022/07/27 02:22:33;;;;;;;;;5.00;5.00;;;;;-146.44;100.00;58906.56;5083626;27;47459;-59
2022/07/27 02:24:59;;;;;;;;;3.75;3.75;;;;;-146.44;100.00;58906.56;5074935;27;45375;-60
2022/07/27 02:27:25;;;;;;;;;5.00;5.00;;;;;-146.44;100.00;58906.56;5075814;27;45464;-59
2022/07/27 02:29:51;;;;;;;;;4.67;4.67;;;;;-146.44;100.00;58906.56;5075990;27;45568;-60
2022/07/27 02:32:17;;;;;;;;;3.00;3.00;;;;;-146.44;100.00;58906.56;5071770;27;45418;-59
2022/07/27 02:34:42;;;;;;;;;3.33;3.33;;;;;-146.44;100.00;58906.56;5055990;28;45418;-61
2022/07/27 02:37:08;;;;;;;;;4.33;4.33;;;;;-146.44;100.00;58906.56;5055773;28;45467;-60
2022/07/27 02:39:33;;;;;;;;;5.00;4.67;;;;;-146.44;100.00;58906.56;5055728;28;45616;-59
2022/07/27 02:41:59;;;;;;;;;2.75;2.75;;;;;-146.44;100.00;58906.56;5054699;28;45997;-60
2022/07/27 02:44:25;;;;;;;;;3.00;3.00;;;;;-146.44;100.00;58906.56;5055811;28;45430;-60
2022/07/27 02:46:50;;;;;;;;;2.50;2.50;;;;;-146.44;100.00;58906.56;5055637;28;45576;-60
2022/07/27 02:49:16;;;;;;;;;2.67;2.67;;;;;-146.44;100.00;58906.56;5071036;28;45448;-60
2022/07/27 02:51:41;;;;;;;;;3.33;3.00;;;;;-146.44;100.00;58906.56;5055158;28;46058;-60
2022/07/27 02:54:06;;;;;;;;;4.00;4.00;;;;;-146.44;100.00;58906.56;5054606;28;45436;-59
2022/07/27 02:56:32;;;;;;;;;4.00;4.00;;;;;-146.44;100.00;58906.56;5055410;28;45441;-62
2022/07/27 02:58:57;;;;;;;;;4.00;4.00;;;;;-146.44;100.00;58906.56;5056824;28;45486;-61
2022/07/27 03:01:23;;;;;;;;;3.67;3.33;;;;;-146.44;100.00;58906.56;5054795;28;46072;-59
2022/07/27 03:03:48;;;;;;;;;4.00;3.00;;;;;-146.44;100.00;58906.56;5054997;28;45470;-59
2022/07/27 03:06:13;;;;;;;;;3.75;3.75;;;;;-146.44;100.00;58906.56;5064037;27;45363;-60
2022/07/27 03:08:39;;;;;;;;;2.50;2.50;;;;;-146.44;100.00;58906.56;5054987;28;45666;-59
2022/07/27 03:11:04;;;;;;;;;3.00;3.00;;;;;-146.44;100.00;58906.56;5057857;28;45715;-59
2022/07/27 03:13:30;;;;;;;;;2.25;2.25;;;;;-146.44;100.00;58906.56;5058507;28;45441;-60
2022/07/27 03:15:56;;;;;;;;;3.00;3.00;;;;;-146.44;100.00;58906.56;5061170;28;45418;-60
2022/07/27 03:18:22;;;;;;;;;5.00;5.00;;;;;-146.44;100.00;58906.56;5078548;27;45469;-59
2022/07/27 03:20:47;;;;;;;;;7.33;3.00;;;;;-146.44;100.00;58906.56;5075875;28;45430;-60
2022/07/27 03:23:12;;;;;;;;;6.00;4.00;;;;;-146.44;100.00;58906.56;5058263;28;45390;-60
2022/07/27 03:25:38;;;;;;;;;3.67;3.67;;;;;-146.44;100.00;58906.56;5058024;28;45465;-60
2022/07/27 03:28:04;;;;;;;;;3.00;3.00;;;;;-146.44;100.00;58906.56;5058365;28;45438;-60
2022/07/27 03:30:30;;;;;;;;;4.67;3.00;;;;;-146.44;100.00;58906.56;5058140;28;45354;-63
2022/07/27 03:32:55;;;;;;;;;3.67;3.67;;;;;-146.44;100.00;58906.56;5060718;28;45371;-60
2022/07/27 03:35:20;;;;;;;;;5.00;5.00;;;;;-146.44;100.00;58906.56;5078637;27;45300;-60
2022/07/27 03:37:46;;;;;;;;;4.33;4.33;;;;;-146.44;100.00;58906.56;5078369;27;45651;-60
2022/07/27 03:40:11;;;;;;;;;4.00;4.00;;;;;-146.44;100.00;58906.56;5077137;28;46851;-60
2022/07/27 03:42:37;;;;;;;;;4.00;4.00;;;;;-146.44;100.00;58906.56;5063974;27;45496;-60
2022/07/27 03:45:03;;;;;;;;;4.33;4.00;;;;;-146.44;100.00;58906.56;5058223;28;45498;-60
2022/07/27 03:47:28;;;;;;;;;4.00;4.00;;;;;-146.44;100.00;58906.56;5059773;28;45538;-60
2022/07/27 03:49:54;;;;;;;;;7.00;7.00;;;;;-146.44;100.00;58906.56;5058300;28;46177;-60
2022/07/27 03:52:19;;;;;;;;;7.00;5.00;;;;;-146.44;100.00;58906.56;5057792;28;45449;-58
2022/07/27 03:54:46;;;;;;;;;9.00;6.67;;;;;-146.44;100.00;58906.56;5058481;28;45512;-59
2022/07/27 03:57:12;;;;;;;;;5.00;5.00;;;;;-146.44;100.00;58906.56;5073617;28;45470;-58
2022/07/27 03:59:37;;;;;;;;;3.00;3.00;;;;;-146.44;100.00;58906.56;5060399;27;45351;-58
2022/07/27 04:02:03;;;;;;;;;3.67;3.67;;;;;-146.44;100.00;58906.56;5077725;27;45385;-59
2022/07/27 04:04:29;;;;;;;;;3.67;3.00;;;;;-146.44;100.00;58906.56;5077958;27;45358;-58
2022/07/27 04:06:54;;;;;;;;;5.00;5.00;;;;;-146.44;100.00;58906.56;5071000;27;45425;-59
2022/07/27 04:09:19;;;;;;;;;6.67;5.33;;;;;-146.44;100.00;58906.56;5057599;28;46230;-58
2022/07/27 04:11:45;;;;;;;;;4.00;4.00;;;;;-146.44;100.00;58906.56;5059319;28;45456;-59
2022/07/27 04:14:11;;;;;;;;;3.00;3.00;;;;;-146.44;100.00;58906.56;5076406;27;45370;-59
2022/07/27 04:16:37;;;;;;;;;3.33;3.33;;;;;-146.44;100.00;58906.56;5057716;27;45660;-58
2022/07/27 04:19:02;;;;;;;;;3.00;3.00;;;;;-146.44;100.00;58906.56;5057071;28;46261;-58
2022/07/27 04:21:27;;;;;;;;;5.67;4.00;;;;;-146.44;100.00;58906.56;5057127;28;45494;-58
2022/07/27 04:23:53;;;;;;;;;4.67;4.00;;;;;-146.44;100.00;58906.56;5057206;28;45445;-59
2022/07/27 04:26:19;;;;;;;;;6.33;6.00;;;;;-146.44;100.00;58906.56;5060579;28;45509;-59
2022/07/27 04:28:44;;;;;;;;;4.00;4.00;;;;;-146.44;100.00;58906.56;5057394;28;46112;-58
2022/07/27 04:31:10;;;;;;;;;4.67;4.67;;;;;-146.44;100.00;58906.56;5056443;28;46081;-59
2022/07/27 04:33:35;;;;;;;;;4.00;4.00;;;;;-146.44;100.00;58906.56;5057427;28;45473;-59
2022/07/27 04:36:00;;;;;;;;;3.00;3.00;;;;;-146.44;100.00;58906.56;5072098;27;45458;-59
2022/07/27 04:38:26;;;;;;;;;3.00;3.00;;;;;-146.44;100.00;58906.56;5081897;27;45461;-59
2022/07/27 04:40:51;;;;;;;;;3.00;3.00;;;;;-146.44;100.00;58906.56;5076519;27;45475;-59
2022/07/27 04:43:16;;;;;;;;;5.67;4.00;;;;;-146.44;100.00;58906.56;5077606;27;45408;-58
2022/07/27 04:45:42;;;;;;;;;2.67;2.67;;;;;-146.44;100.00;58906.56;5075974;27;45692;-58
2022/07/27 04:48:09;;;;;;;;;7.33;4.67;;;;;-146.44;100.00;58906.56;5077314;27;46094;-58
2022/07/27 04:50:42;;;;;;;;;3.00;3.00;;;;;-146.44;100.00;58906.56;5059475;27;45561;-58
2022/07/27 04:53:11;;;;;;;;;3.00;3.00;;;;;-146.44;100.00;58906.56;5057283;28;45356;-58
2022/07/27 04:55:40;;;;;;;;;4.67;4.00;;;;;-146.44;100.00;58906.56;5058898;28;45541;-59
2022/07/27 04:58:06;;;;;;;;;4.67;4.00;;;;;-146.44;100.00;58906.56;5061204;28;45576;-59
2022/07/27 05:00:31;;;;;;;;;5.33;5.00;;;;;-146.44;100.00;58906.56;5075470;28;45460;-59
2022/07/27 05:02:57;;;;;;;;;4.33;3.67;;;;;-146.44;100.00;58906.56;5057068;28;45513;-59
2022/07/27 05:05:22;;;;;;;;;6.00;4.33;;;;;-146.44;100.00;58906.56;5055840;28;45592;-59
2022/07/27 05:07:48;;;;;;;;;4.00;4.00;;;;;-146.44;100.00;58906.56;5054271;28;45989;-59
2022/07/27 05:10:13;;;;;;;;;2.67;2.67;;;;;-146.44;100.00;58906.56;5056698;28;45419;-58
2022/07/27 05:12:38;;;;;;;;;4.33;4.33;;;;;-146.44;100.00;58906.56;5055642;28;45595;-61
2022/07/27 05:15:04;;;;;;;;;4.00;4.00;;;;;-146.44;100.00;58906.56;5055938;28;45556;-59
2022/07/27 05:17:30;;;;;;;;;4.00;3.00;;;;;-146.44;100.00;58906.56;5058830;28;45402;-58
2022/07/27 05:19:55;;;;;;;;;3.67;2.67;;;;;-146.44;100.00;58906.56;5057478;28;45435;-58
2022/07/27 05:22:20;;;;;;;;;3.00;3.00;;;;;-146.44;100.00;58906.56;5056609;28;45478;-58
2022/07/27 05:24:46;;;;;;;;;3.00;3.00;;;;;-146.44;100.00;58906.56;5059869;28;45371;-58
2022/07/27 05:27:11;;;;;;;;;2.33;2.33;;;;;-146.44;100.00;58906.56;5072258;27;46649;-55
2022/07/27 05:29:37;;;;;;;;;4.00;3.33;;;;;-146.44;100.00;58906.56;5073684;28;45331;-58
2022/07/27 05:32:03;;;;;;;;;2.67;2.67;;;;;-146.44;100.00;58906.56;5072395;27;45458;-61
2022/07/27 05:34:29;;;;;;;;;3.67;3.67;;;;;-146.44;100.00;58906.56;5058799;28;45394;-58
2022/07/27 05:36:54;;;;;;;;;3.00;3.00;;;;;-146.44;100.00;58906.56;5059260;27;46092;-58
2022/07/27 05:39:20;;;;;;;;;3.33;3.00;;;;;-146.44;100.00;58906.56;5061159;27;45511;-58
2022/07/27 05:41:45;;;;;;;;;3.00;3.00;;;;;-146.44;100.00;58906.56;5068494;28;45749;-58
2022/07/27 05:44:10;;;;;;;;;3.67;3.67;;;;;-146.44;100.00;58906.56;5056186;27;45663;-58
2022/07/27 05:46:36;;;;;;;;;3.67;3.67;;;;;-146.44;100.00;58906.56;5067436;28;45497;-58
2022/07/27 05:49:01;;;;;;;;;3.00;3.00;;;;;-146.44;100.00;58906.56;5056753;28;45439;-58
2022/07/27 05:51:26;;;;;;;;;3.67;3.67;;;;;-146.44;100.00;58906.56;5056094;28;45434;-57
2022/07/27 05:53:52;;;;;;;;;3.00;2.67;;;;;-146.44;100.00;58906.56;5056255;28;45562;-56
2022/07/27 05:56:17;;;;;;;;;5.00;5.00;;;;;-146.44;100.00;58906.56;5065285;28;45619;-55
2022/07/27 05:58:42;;;;;;;;;5.00;3.00;;;;;-146.44;100.00;58906.56;5061086;27;45595;-58
2022/07/27 06:01:08;;;;;;;;;4.00;4.00;;;;;-146.44;100.00;58906.56;5066996;27;45537;-62
2022/07/27 06:03:36;;;;;;;;;4.67;4.67;;;;;-146.44;100.00;58906.56;5063855;27;45645;-59
2022/07/27 06:08:45;;;;;;;;;4.00;4.00;;;;;-146.44;100.00;58906.56;5062954;28;45304;-59
2022/07/27 06:11:11;;;;;;;;;5.33;5.33;;;;;-146.44;100.00;58906.56;5076074;27;45357;-55
2022/07/27 06:13:37;;;;;;;;;4.67;4.67;;;;;-146.44;100.00;58906.56;5091838;27;45755;-56
2022/07/27 06:16:02;;;;;;;;;3.33;3.00;;;;;-146.44;100.00;58906.56;5061041;27;45918;-55
2022/07/27 06:18:28;;;;;;;;;4.33;4.33;;;;;-146.44;100.00;58906.56;5055871;28;45517;-57
2022/07/27 06:20:53;;;;;;;;;3.00;3.00;;;;;-146.44;100.00;58906.56;5061156;27;45632;-58
2022/07/27 06:23:19;;;;;;;;;4.33;4.33;;;;;-146.44;100.00;58906.56;5070370;27;45528;-60
2022/07/27 06:25:44;;;;;;;;;4.67;4.67;;;;;-146.44;100.00;58906.56;5058154;27;46097;-61
2022/07/27 06:28:09;;;;;;;;;4.00;3.67;;;;;-146.44;100.00;58906.56;5072311;27;45547;-60
2022/07/27 06:30:35;;;;;;;;;3.33;2.00;;;;;-146.44;100.00;58906.56;5095919;27;45459;-60
2022/07/27 06:33:05;;;;;;;;;6.00;5.00;;;;;-146.44;100.00;58906.56;5072529;27;45544;-60
2022/07/27 06:35:31;;;;;;;;;4.00;4.00;;;;;-146.44;100.00;58906.56;5055067;28;45996;-60
2022/07/27 06:37:56;;;;;;;;;5.00;5.00;;;;;-146.44;100.00;58906.56;5054639;28;45425;-61
2022/07/27 06:40:22;;;;;;;;;4.25;4.00;;;;;-146.44;100.00;58906.56;5057683;28;45520;-60
2022/07/27 06:42:47;;;;;;;;;4.67;3.33;;;;;-146.44;100.00;58906.56;5055420;28;45599;-60
2022/07/27 06:45:13;;;;;;;;;3.67;3.67;;;;;-146.44;100.00;58906.56;5055854;28;46171;-61
2022/07/27 06:47:39;;;;;;;;;5.00;3.00;;;;;-146.44;100.00;58906.56;5058712;28;45508;-61
2022/07/27 06:50:06;;;;;;;;;3.67;3.67;;;;;-146.44;100.00;58906.56;5063212;28;45617;-61
2022/07/27 06:52:32;;;;;;;;;4.00;4.00;;;;;-146.44;100.00;58906.56;5068439;28;45599;-60
2022/07/27 06:54:57;;;;;;;;;4.00;4.00;;;;;-146.44;100.00;58906.56;5058990;28;45535;-60
2022/07/27 06:57:23;;;;;;;;;4.00;4.00;;;;;-146.44;100.00;58906.56;5057014;27;49058;-61
2022/07/27 06:59:49;;;;;;;;;5.33;4.00;;;;;-146.44;100.00;58906.56;5062821;27;45500;-61
2022/07/27 07:02:17;;;;;;;;;16.00;15.00;;;;;-146.44;100.00;58906.56;5074083;28;45583;-61
2022/07/27 07:04:43;;;;;;;;;4.33;4.33;;;;;-146.44;100.00;58906.56;5058367;28;46164;-60
2022/07/27 07:07:08;;;;;;;;;7.67;6.00;;;;;-146.44;100.00;58906.56;5058614;28;45535;-61
2022/07/27 07:09:34;;;;;;;;;22.67;21.67;;;;;-146.44;100.00;58906.56;5073530;28;45787;-60
2022/07/27 07:12:01;;;;;;;;;5.00;5.00;;;;;-146.44;100.00;58906.56;5059306;28;45524;-60
2022/07/27 07:14:27;;;;;;;;;7.00;7.00;;;;;-146.44;100.00;58906.56;5058768;28;46207;-60
2022/07/27 07:16:52;;;;;;;;;7.33;7.33;;;;;-146.44;100.00;58906.56;5058583;28;45537;-60
2022/07/27 07:19:18;;;;;;;;;8.00;7.00;;;;;-146.44;100.00;58906.56;5058294;28;45374;-61
2022/07/27 07:21:43;;;;;;;;;6.00;6.00;;;;;-146.44;100.00;58906.56;5057451;28;45488;-60
2022/07/27 07:24:09;;;;;;;;;7.33;7.00;;;;;-146.44;100.00;58906.56;5068961;28;45376;-60
2022/07/27 07:26:36;;;;;;;;;8.00;6.33;;;;;-146.44;100.00;58906.56;5065715;28;45457;-60
2022/07/27 07:29:02;;;;;;;;;10.00;7.00;;;;;-146.44;100.00;58906.56;5058691;28;45417;-60
2022/07/27 07:31:27;;;;;;;;;7.33;6.67;;;;;-146.44;100.00;58906.56;5075891;28;45649;-60
2022/07/27 07:33:52;;;;;;;;;6.33;6.33;;;;;-146.44;100.00;58906.56;5066656;27;46920;-60
2022/07/27 07:36:18;;;;;;;;;7.67;7.67;;;;;-146.44;100.00;58906.56;5061219;28;47343;-60
2022/07/27 07:38:43;;;;;;;;;7.00;6.00;;;;;-146.44;100.00;58906.56;5078313;28;45513;-60
2022/07/27 07:41:09;;;;;;;;;7.67;7.67;;;;;-146.44;100.00;58906.56;5068745;28;45674;-60
2022/07/27 07:43:37;;;;;;;;;7.33;6.33;;;;;-146.44;100.00;58906.56;5076908;28;45495;-60
2022/07/27 07:46:03;;;;;;;;;8.00;7.00;;;;;-146.44;100.00;58906.56;5065216;28;45605;-60
2022/07/27 07:48:28;;;;;;;;;7.67;7.67;;;;;-146.44;100.00;58906.56;5057976;28;45422;-60
2022/07/27 07:50:53;;;;;;;;;12.00;9.67;;;;;-146.44;100.00;58906.56;5057425;28;45422;-61
2022/07/27 07:53:23;;;;;;;;;12.33;9.67;;;;;-146.44;100.00;58906.56;5057562;28;46189;-61
2022/07/27 07:55:49;;;;;;;;;11.67;9.33;;;;;-146.44;100.00;58906.56;5057485;28;45439;-60
2022/07/27 07:58:15;;;;;;;;;8.33;8.33;;;;;-146.44;100.00;58906.56;5075253;27;45435;-61
2022/07/27 08:00:41;;;;;;;;;5.33;5.00;;;;;-146.44;100.00;58906.56;5070267;28;45518;-60
2022/07/27 08:03:06;;;;;;;;;7.00;7.00;;;;;-146.44;100.00;58906.56;5058310;28;46423;-61
2022/07/27 08:05:32;;;;;;;;;10.00;10.00;;;;;-146.44;100.00;58906.56;5057780;28;45488;-60
2022/07/27 08:07:57;;;;;;;;;9.67;9.00;;;;;-146.44;100.00;58906.56;5069604;28;45643;-60
2022/07/27 08:10:23;;;;;;;;;7.33;7.33;;;;;-146.44;100.00;58906.56;5077981;27;45398;-61
2022/07/27 08:12:52;;;;;;;;;9.00;9.00;;;;;-146.44;100.00;58906.56;5063405;27;45452;-60
2022/07/27 08:15:19;;;;;;;;;7.33;6.00;;;;;-146.44;100.00;58906.56;5057129;28;45545;-61
2022/07/27 08:17:45;;;;;;;;;7.33;7.33;;;;;-146.44;100.00;58906.56;5067734;28;45384;-61
2022/07/27 08:20:11;;;;;;;;;10.00;8.33;;;;;-146.44;100.00;58906.56;5057350;28;45540;-61
2022/07/27 08:22:37;;;;;;;;;8.00;7.67;;;;;-146.44;100.00;58906.56;5066865;28;45441;-61
2022/07/27 08:25:04;;;;;;;;;12.67;12.00;;;;;-146.44;100.00;58906.56;5063117;27;45513;-61
2022/07/27 08:27:29;;;;;;;;;9.33;9.33;;;;;-146.44;100.00;58906.56;5061626;28;45488;-62
2022/07/27 08:29:55;;;;;;;;;13.00;13.00;;;;;-146.44;100.00;58906.56;5073213;28;45526;-61
2022/07/27 08:32:20;;;;;;;;;8.67;8.67;;;;;-146.44;100.00;58906.56;5057079;28;46088;-61
2022/07/27 08:34:46;;;;;;;;;8.33;8.33;;;;;-146.44;100.00;58906.56;5063765;28;45496;-61
2022/07/27 08:37:11;;;;;;;;;9.67;9.67;;;;;-146.44;100.00;58906.56;5057211;28;45809;-61
2022/07/27 08:39:36;;;;;;;;;9.67;9.67;;;;;-146.44;100.00;58906.56;5062854;28;45670;-61
2022/07/27 08:42:06;;;;;;;;;11.67;11.67;;;;;-146.44;100.00;58906.56;5069070;28;46133;-61
2022/07/27 08:44:32;;;;;;;;;10.67;10.00;;;;;-146.44;100.00;58906.56;5069196;27;45568;-62
2022/07/27 08:47:01;;;;;;;;;11.67;10.33;;;;;-146.44;100.00;58906.56;5056382;28;45543;-61
2022/07/27 08:49:28;;;;;;;;;13.00;13.00;;;;;-146.44;100.00;58906.56;5065306;28;45612;-61
2022/07/27 08:51:54;;;;;;;;;9.67;9.00;;;;;-146.44;100.00;58906.56;5060355;27;45998;-60
2022/07/27 08:54:20;;;;;;;;;8.00;8.00;;;;;-146.44;100.00;58906.56;5057104;28;45475;-61
2022/07/27 08:56:46;;;;;;;;;9.67;9.00;;;;;-146.44;100.00;58906.56;5064257;28;45387;-61
2022/07/27 08:59:11;;;;;;;;;13.00;13.00;;;;;-146.44;100.00;58906.56;5066132;28;45619;-61
2022/07/27 09:01:38;;;;;;;;;12.00;11.00;;;;;-146.44;100.00;58906.56;5059098;28;46050;-61
2022/07/27 09:04:04;;;;;;;;;11.33;8.67;;;;;-146.44;100.00;58906.56;5058840;28;45393;-61
2022/07/27 09:07:01;;;;;;;;;11.33;7.67;;;;;-146.44;100.00;58906.56;5057292;28;45584;-61
2022/07/27 09:09:27;;;;;;;;;8.67;8.67;;;;;-146.44;100.00;58906.56;5045940;28;45428;-61
2022/07/27 09:12:26;;;;;;;;;9.00;8.00;;;;;-146.44;100.00;58906.56;5071106;27;45429;-61
2022/07/27 09:15:03;;;;;;;;;10.33;10.33;;;;;-146.44;100.00;58906.56;5072384;27;45513;-61
2022/07/27 09:17:28;;;;;;;;;7.33;7.33;;;;;-146.44;100.00;58906.56;5057697;27;45381;-61
2022/07/27 09:19:55;;;;;;;;;10.33;9.67;;;;;-146.44;100.00;58906.56;5066028;28;45589;-61
2022/07/27 09:22:51;;;;;;;;;7.00;7.00;;;;;-146.44;100.00;58906.56;5070251;28;46216;-61
2022/07/27 09:25:22;;;;;;;;;8.33;7.00;;;;;-146.44;100.00;58906.56;5056190;28;45430;-61
2022/07/27 09:27:52;;;;;;;;;9.67;7.00;;;;;-146.44;100.00;58906.56;5076100;28;45575;-61
2022/07/27 09:30:19;;;;;;;;;10.67;10.00;;;;;-146.44;100.00;58906.56;5075112;28;45466;-61
2022/07/27 09:33:13;;;;;;;;;9.00;8.00;;;;;-146.44;100.00;58906.56;5067414;28;45477;-61
2022/07/27 09:35:39;;;;;;;;;10.67;10.67;;;;;-146.44;100.00;58906.56;5057862;28;45421;-61
2022/07/27 09:38:22;;;;;;;;;9.00;8.67;;;;;-146.44;100.00;58906.56;5065221;27;45534;-61
2022/07/27 09:41:01;;;;;;;;;7.67;7.67;;;;;-146.44;100.00;58906.56;5055245;28;45529;-61
2022/07/27 09:43:29;;;;;;;;;6.67;6.00;;;;;-146.44;100.00;58906.56;5055749;28;45456;-61
2022/07/27 09:46:03;;;;;;;;;6.50;6.50;;;;;-146.44;100.00;58906.56;5067428;28;45508;-61
2022/07/27 09:48:33;;;;;;;;;8.00;7.00;;;;;-146.44;100.00;58906.56;5060534;27;45412;-61
2022/07/27 09:51:01;;;;;;;;;9.00;7.75;;;;;-146.44;100.00;58906.56;5056507;28;45494;-61
2022/07/27 09:53:31;;;;;;;;;7.00;7.00;;;;;-146.44;100.00;58906.56;5057297;28;45981;-61
2022/07/27 09:56:05;;;;;;;;;7.75;7.25;;;;;-146.44;100.00;58906.56;5058504;28;45536;-61
2022/07/27 09:58:44;;;;;;;;;6.25;6.25;;;;;-146.44;100.00;58906.56;5056162;28;45433;-61
2022/07/27 10:01:20;;;;;;;;;5.75;5.75;;;;;-146.44;100.00;58906.56;5075560;28;45482;-62
2022/07/27 10:03:46;;;;;;;;;6.00;6.00;;;;;-146.44;100.00;58906.56;5064686;28;45474;-61
2022/07/27 10:06:12;;;;;;;;;7.50;7.50;;;;;-146.44;100.00;58906.56;5060020;28;45795;-62
2022/07/27 10:08:42;;;;;;;;;3.50;3.50;;;;;-146.44;100.00;58906.56;5056752;27;45436;-61
2022/07/27 10:11:08;;;;;;;;;7.00;7.00;;;;;-146.44;100.00;58906.56;5056033;28;45418;-61
2022/07/27 10:13:34;;;;;;;;;5.75;5.75;;;;;-146.44;100.00;58906.56;5074349;27;46207;-61
2022/07/27 10:16:01;;;;;;;;;6.00;6.00;;;;;-146.44;100.00;58906.56;5055175;27;45615;-61
2022/07/27 10:18:57;;;;;;;;;10.00;8.00;;;;;-146.44;100.00;58906.56;5070044;28;45563;-61
2022/07/27 10:21:23;;;;;;;;;6.75;6.00;;;;;-146.44;100.00;58906.56;5077931;28;45574;-61
2022/07/27 10:24:09;;;;;;;;;5.75;5.00;;;;;-146.44;100.00;58906.56;5073620;27;46312;-61
2022/07/27 10:26:37;;;;;;;;;7.00;7.00;;;;;-146.44;100.00;58906.56;5058210;28;45437;-60
2022/07/27 10:29:14;;;;;;;;;5.50;5.50;;;;;-146.44;100.00;58906.56;5058638;28;45423;-60
2022/07/27 10:31:42;;;;;;;;;7.75;7.00;;;;;-146.44;100.00;58906.56;5058525;27;45407;-60
2022/07/27 10:34:13;;;;;;;;;4.00;4.00;;;;;-146.44;100.00;58906.56;5059749;28;46205;-60
2022/07/27 10:36:43;;;;;;;;;4.00;4.00;;;;;-146.44;100.00;58906.56;5058675;27;45556;-60
2022/07/27 10:39:08;;;;;;;;;5.50;5.50;;;;;-146.44;100.00;58906.56;5064591;27;45443;-61
2022/07/27 10:41:40;;;;;;;;;5.00;5.00;;;;;-146.44;100.00;58906.56;5088154;27;45380;-60
2022/07/27 10:44:19;;;;;;;;;6.00;6.00;;;;;-146.44;100.00;58906.56;5071259;28;46645;-60
2022/07/27 10:47:05;;;;;;;;;4.75;4.75;;;;;-146.44;100.00;58906.56;5094665;27;45410;-61
2022/07/27 10:49:36;;;;;;;;;5.50;5.50;;;;;-146.44;100.00;58906.56;5074190;27;45446;-61
2022/07/27 10:52:03;;;;;;;;;6.00;6.00;;;;;-146.44;100.00;58906.56;5068655;27;45471;-61
2022/07/27 10:54:35;;;;;;;;;4.75;4.75;;;;;-146.44;100.00;58906.56;5085061;27;45448;-61
2022/07/27 10:57:03;;;;;;;;;7.00;7.00;;;;;-146.44;100.00;58906.56;5077828;27;45517;-61
2022/07/27 10:59:42;;;;;;;;;5.50;4.50;;;;;-146.44;100.00;58906.56;5063801;27;45474;-61
2022/07/27 11:02:35;;;;;;;;;6.00;4.00;;;;;-146.44;100.00;58906.56;5058643;28;45585;-61
2022/07/27 11:05:03;;;;;;;;;5.75;5.75;;;;;-146.44;100.00;58906.56;5058099;28;46072;-61
2022/07/27 11:07:28;;;;;;;;;4.00;4.00;;;;;-146.44;100.00;58906.56;5058216;28;45441;-61
2022/07/27 11:09:53;;;;;;;;;5.00;5.00;;;;;-146.44;100.00;58906.56;5070304;28;45458;-61
2022/07/27 11:12:19;;;;;;;;;4.00;4.00;;;;;-146.44;100.00;58906.56;5074126;27;45591;-61